Fairview, Iowa
Current Conditions -  °F | °C
As of 7:35 AM on Friday 28 Nov 2014 (Local Time) from KMXO Reporting Station
Broken Clouds Broken Clouds  
Wind Chill:   Ceiling: 12000
Heat Index: 18°   Visibility: 10mi
Dew Point: 10°   Wind: 16mph
Humidity: 73%   Direction: 130°SE
Pressure: 30.11"   Gusts: NA
Location:  42.1396°N, 91.2844°W
Report Text: KMXO 281335Z AUTO 13014KT 10SM BKN120 M08/M12 A3011 RMK AO2
Loading
Personal Weather Stations






























Interactive Weather Map New forecast layout! Learn more

10-Day Weather Forecast

Advertisements
Track Severe Weather on mobile